Garden Prairie, Illinois
Current Conditions -  °F | °C
As of 8:54 AM on Thursday 23 Oct 2014 (Local Time) from KRFD Reporting Station
Overcast Overcast  
Wind Chill: 39°   Ceiling: 25000
Heat Index: 44°   Visibility: 9mi
Dew Point: 38°   Wind: 9mph
Humidity: 79%   Direction: 180°S
Pressure: 30.21"   Gusts: NA
Location:  42.25°N, 88.72°W
Report Text: KRFD 231354Z 18008KT 9SM FEW150 OVC250 07/03 A3021 RMK AO2 SLP234 T00670033
Loading
Personal Weather Stations






























Interactive Weather Map
Tropical Storm Tracking
New forecast layout! Learn more

10-Day Weather Forecast

Advertisements
Track Severe Weather on mobile